createdAt,value
2019-05-13T05:11:34.213Z,92.00
2019-05-13T05:21:34.922Z,89.85
2019-05-13T05:31:34.479Z,88.93
2019-05-13T05:41:34.731Z,86.74
2019-05-13T05:51:34.405Z,88.20
2019-05-13T06:01:37.225Z,85.82
2019-05-13T06:11:36.995Z,81.87
2019-05-13T06:21:34.192Z,82.55
2019-05-13T06:31:34.397Z,80.74
2019-05-13T06:41:34.537Z,78.57
2019-05-13T06:51:34.826Z,77.72
2019-05-13T07:01:34.483Z,69.66
2019-05-13T07:11:34.376Z,68.96
2019-05-13T07:21:34.431Z,66.35
2019-05-13T07:31:34.376Z,65.68
2019-05-13T07:41:39.289Z,67.57
2019-05-13T07:51:34.918Z,61.24
2019-05-13T08:01:34.252Z,58.89
2019-05-13T08:11:40.154Z,61.01
2019-05-13T08:21:34.910Z,57.87
2019-05-13T08:31:35.048Z,58.34
2019-05-13T08:41:34.890Z,59.27
2019-05-13T08:51:34.866Z,55.21
2019-05-13T09:01:36.744Z,53.89
2019-05-13T09:11:34.889Z,52.59
2019-05-13T09:21:34.931Z,50.27
2019-05-13T09:31:35.098Z,47.28
2019-05-13T09:41:40.886Z,45.97
2019-05-13T09:51:35.270Z,47.83
2019-05-13T10:01:35.026Z,48.92
2019-05-13T10:11:34.964Z,47.44
2019-05-13T10:21:34.642Z,42.33
2019-05-13T10:31:34.814Z,36.33
2019-05-13T10:41:35.204Z,35.23
2019-05-13T10:51:34.239Z,41.63
2019-05-13T11:01:34.699Z,39.46
2019-05-13T11:11:34.878Z,37.96
2019-05-13T11:21:34.850Z,36.95
2019-05-13T11:31:35.142Z,32.54
2019-05-13T11:41:34.818Z,35.13
2019-05-13T11:51:34.960Z,31.46
2019-05-13T12:01:34.434Z,29.25
2019-05-13T12:11:34.598Z,26.97
2019-05-13T12:21:41.695Z,33.93
2019-05-13T12:31:34.842Z,28.94
2019-05-13T12:41:34.901Z,30.64
2019-05-13T12:51:35.073Z,30.21
2019-05-13T13:01:35.048Z,28.53
2019-05-13T13:11:35.068Z,29.33
2019-05-13T13:21:37.710Z,26.96
2019-05-13T13:31:34.956Z,27.54
2019-05-13T13:41:34.939Z,25.67
2019-05-13T13:51:34.696Z,25.71
2019-05-13T14:01:34.960Z,28.52
2019-05-13T14:11:34.836Z,30.15
2019-05-13T14:21:34.914Z,29.76
2019-05-13T14:31:34.867Z,29.55
2019-05-13T14:41:33.896Z,31.50
2019-05-13T14:51:34.079Z,37.01
2019-05-13T15:01:34.163Z,33.61
2019-05-13T15:11:34.125Z,33.67
2019-05-13T15:21:34.426Z,30.15
2019-05-13T15:31:34.168Z,34.79
2019-05-13T15:41:34.027Z,34.12
2019-05-13T15:51:34.708Z,31.24
2019-05-13T16:01:34.054Z,34.85
2019-05-13T16:11:34.237Z,33.04
2019-05-13T16:21:34.082Z,31.54
2019-05-13T16:31:34.691Z,30.97
2019-05-13T16:41:34.488Z,29.84
2019-05-13T16:51:34.615Z,29.77
2019-05-13T17:01:34.702Z,30.61
2019-05-13T17:11:34.561Z,31.60
2019-05-13T17:21:36.081Z,29.83
2019-05-13T17:31:34.398Z,33.11
2019-05-13T17:41:34.344Z,34.72
2019-05-13T17:51:34.630Z,36.27
2019-05-13T18:01:34.494Z,36.54
2019-05-13T18:11:34.470Z,37.14
2019-05-13T18:21:35.262Z,37.34
2019-05-13T18:31:34.701Z,38.98
2019-05-13T18:41:34.443Z,40.44
2019-05-13T18:51:34.335Z,40.76
2019-05-13T19:01:34.398Z,43.67
